M I D A S
Marine Information and Data Acquisition System
Tripno 408 of the Zeeleeuw from 2002-11-29 08:36:27 to 2002-11-29 12:55:31
Back to CruiseResearch ActivitiesStationsMapUnderway DataData graphs

EquipmentUnitsComment
TimeDGPSUTC
LatitudeDGPSDM.mWGS84
LongitudeDGPSDM.mWGS84
HeadingGyrodeg 
SOGDGPSknotsSpeed over ground
COGDGPSdegCourse over ground
DepthEcho soundermeters200 kHz
Missing or incorrect values are displayed as -999
Navigation data collected by the RV Zeeleeuw from 2002-11-29 08:36:27 to 2002-11-29 12:55:31
Time Latitude Longitude Heading SOG COG Depth
2002-11-29 08:37:31 51°13.605 2°56.069 111.5 2.4 290.5 -999
2002-11-29 08:38:30 51°13.613 2°56.036 118.5 1.5 292.6 11.7
2002-11-29 08:39:31 51°13.635 2°55.973 129.5 3.3 304.8 -999
2002-11-29 08:40:31 51°13.67 2°55.895 124.3 3.7 303.4 -999
2002-11-29 08:41:31 51°13.699 2°55.803 113.5 3.8 291.7 -999
2002-11-29 08:42:30 51°13.71 2°55.758 91.7 0.3 6 15.1
2002-11-29 08:43:30 51°13.715 2°55.766 57.2 0.5 246.6 14.3
2002-11-29 08:44:30 51°13.704 2°55.736 53.3 1.2 241.9 14.8
2002-11-29 08:45:30 51°13.702 2°55.727 35.5 0.2 9.1 14.7
2002-11-29 08:46:30 51°13.726 2°55.722 342.8 2.6 339.3 11.7
2002-11-29 08:47:30 51°13.786 2°55.674 336.8 5.1 332.7 11.9
2002-11-29 08:48:30 51°13.881 2°55.602 341 6.8 336.1 12.3
2002-11-29 08:49:30 51°13.992 2°55.528 342.8 7.5 338.8 12.1
2002-11-29 08:50:31 51°14.114 2°55.454 342.2 7.9 338.3 11
2002-11-29 08:51:30 51°14.226 2°55.335 319.7 8.9 317.5 11.9
2002-11-29 08:52:30 51°14.328 2°55.136 311.8 10 307.8 11.9
2002-11-29 08:53:30 51°14.413 2°54.884 285.7 11.6 286.3 12.2
2002-11-29 08:54:31 51°14.418 2°54.573 269.3 11.7 268.6 11.7
2002-11-29 08:55:30 51°14.375 2°54.281 252.3 11.5 251.3 10.8
2002-11-29 08:56:30 51°14.286 2°54.003 244.5 12 242.9 11
2002-11-29 08:57:30 51°14.192 2°53.707 244.8 12.9 243.3 10.9
2002-11-29 08:58:30 51°14.095 2°53.401 245.2 12.9 243.6 11.4
2002-11-29 08:59:31 51°13.997 2°53.091 245.3 12.9 243.7 11.8
2002-11-29 09:00:30 51°13.902 2°52.79 245 12.9 243.2 11.8
2002-11-29 09:01:31 51°13.8 2°52.482 244 12.9 242.1 12.1
2002-11-29 09:02:31 51°13.7 2°52.18 244 12.9 242.2 11.6
2002-11-29 09:03:31 51°13.599 2°51.878 244.3 12.9 241.7 12.4
2002-11-29 09:04:30 51°13.5 2°51.581 244.2 12.8 242.1 12.3
2002-11-29 09:05:30 51°13.4 2°51.279 244.5 12.9 242.2 12.5
2002-11-29 09:06:30 51°13.299 2°50.977 244.5 12.9 242.1 12.7
2002-11-29 09:07:30 51°13.198 2°50.677 243.5 12.8 241.4 12.7
2002-11-29 09:08:31 51°13.095 2°50.371 245 12.9 242.6 12.9
2002-11-29 09:09:30 51°12.996 2°50.075 244.2 12.9 241.6 13.1
2002-11-29 09:10:30 51°12.895 2°49.773 244.5 12.9 241.8 13
2002-11-29 09:11:30 51°12.794 2°49.472 244.2 12.9 242 13
2002-11-29 09:12:30 51°12.692 2°49.171 244.3 12.9 241.7 13.4
2002-11-29 09:13:30 51°12.591 2°48.869 244.3 12.9 241.9 13.3
2002-11-29 09:14:30 51°12.489 2°48.566 244.5 13 241.8 13.7
2002-11-29 09:15:30 51°12.387 2°48.266 243.7 12.9 241.4 13.6
2002-11-29 09:16:30 51°12.287 2°47.963 244.2 13 241.6 14
2002-11-29 09:17:31 51°12.182 2°47.654 244 13 241.2 13.9
2002-11-29 09:18:31 51°12.079 2°47.349 243.7 13 241.2 13.9
2002-11-29 09:19:30 51°11.983 2°47.045 249.8 13.1 246.8 13.8
2002-11-29 09:20:31 51°11.897 2°46.719 250.3 13.1 247.5 14
2002-11-29 09:21:31 51°11.812 2°46.401 250 13 247.2 13.5
2002-11-29 09:22:31 51°11.726 2°46.082 248.8 13.1 246.1 14.2
2002-11-29 09:23:31 51°11.64 2°45.763 249.8 13.1 247 14.1
2002-11-29 09:24:30 51°11.557 2°45.448 249.7 13.1 247.1 14
2002-11-29 09:25:30 51°11.471 2°45.13 249.7 13.1 247.1 14
2002-11-29 09:26:30 51°11.384 2°44.813 249.8 13.1 247.1 13.8
2002-11-29 09:27:31 51°11.297 2°44.487 249 13.2 246.5 13.7
2002-11-29 09:28:30 51°11.212 2°44.171 249.7 13.2 247.2 13.7
2002-11-29 09:29:30 51°11.126 2°43.849 249.5 13.2 247.1 13.6
2002-11-29 09:30:30 51°11.043 2°43.525 250.2 13.2 248 13.2
2002-11-29 09:31:30 51°10.963 2°43.198 251.2 13.2 248.8 13.5
2002-11-29 09:32:30 51°10.884 2°42.871 251.3 13.3 248.8 13.2
2002-11-29 09:33:30 51°10.805 2°42.544 251.5 13.3 249.1 13.2
2002-11-29 09:34:30 51°10.726 2°42.216 250.8 13.2 248.6 13.2
2002-11-29 09:35:31 51°10.647 2°41.881 251.8 13.2 249.9 13.1
2002-11-29 09:36:30 51°10.568 2°41.563 251.3 13.1 249.1 12.8
2002-11-29 09:37:31 51°10.491 2°41.231 251.8 13.2 249.6 13.1
2002-11-29 09:38:30 51°10.414 2°40.91 251.7 13.2 249.4 13.2
2002-11-29 09:39:30 51°10.337 2°40.582 251 13.2 249.2 13.2
2002-11-29 09:40:31 51°10.258 2°40.248 251.8 13.3 249.8 13.4
2002-11-29 09:41:30 51°10.184 2°39.922 251.8 13.3 249.7 13.5
2002-11-29 09:42:30 51°10.107 2°39.593 251.3 13.3 249.5 13.5
2002-11-29 09:43:30 51°10.021 2°39.268 241.8 13.2 240.7 13.6
2002-11-29 09:44:30 51°9.915 2°38.959 247.3 13.4 245.3 13.5
2002-11-29 09:45:30 51°9.832 2°38.631 250.3 13.4 248.4 13.9
2002-11-29 09:46:30 51°9.75 2°38.303 250.5 13.4 248.7 14.3
2002-11-29 09:47:30 51°9.672 2°37.974 252.3 13.3 250.4 14.7
2002-11-29 09:48:30 51°9.599 2°37.641 252.3 13.3 250.6 15.2
2002-11-29 09:49:30 51°9.525 2°37.31 252.2 13.3 250.3 15.9
2002-11-29 09:50:31 51°9.45 2°36.972 252.7 13.3 250.8 16.5
2002-11-29 09:51:31 51°9.389 2°36.699 245.7 7.8 245.8 17
2002-11-29 09:52:30 51°9.338 2°36.585 225.3 4.1 226.5 16.9
2002-11-29 09:53:30 51°9.296 2°36.538 208.2 2.5 208.7 16.8
2002-11-29 09:54:30 51°9.266 2°36.517 202.8 1.8 201.6 16.6
2002-11-29 09:55:31 51°9.244 2°36.501 204.5 1.3 206.2 15.8
2002-11-29 09:56:31 51°9.228 2°36.483 212.8 1.1 225 15.5
2002-11-29 09:57:30 51°9.218 2°36.462 222.3 1 242.3 15.9
2002-11-29 09:58:31 51°9.212 2°36.438 228.8 0.9 254.3 15.9
2002-11-29 09:59:31 51°9.208 2°36.413 232.8 1 256.7 15.9
2002-11-29 10:00:30 51°9.205 2°36.387 237.2 1 263.4 16
2002-11-29 10:01:30 51°9.204 2°36.359 241 1 266.6 16.3
2002-11-29 10:02:30 51°9.204 2°36.331 242.8 1.1 266.8 16.4
2002-11-29 10:03:30 51°9.203 2°36.302 245.2 1.1 270.7 16.4
2002-11-29 10:04:31 51°9.204 2°36.273 248.3 1.1 273.5 16.6
2002-11-29 10:05:31 51°9.206 2°36.242 250.5 1.1 275.2 16.3
2002-11-29 10:06:30 51°9.209 2°36.211 252.5 1.2 276.7 16.5
2002-11-29 10:07:30 51°9.213 2°36.18 253.7 1.2 279.3 16.5
2002-11-29 10:08:30 51°9.216 2°36.148 254.7 1.2 280.2 16.5
2002-11-29 10:09:31 51°9.22 2°36.116 255.7 1.2 279.8 16.9
2002-11-29 10:10:30 51°9.223 2°36.086 254.2 1.2 277.3 16.7
2002-11-29 10:11:31 51°9.227 2°36.054 255 1.2 283.6 16.4
2002-11-29 10:12:30 51°9.231 2°36.024 256 1.2 281.9 16.3
2002-11-29 10:13:31 51°9.236 2°35.993 257.7 1.1 283.6 16.8
2002-11-29 10:14:30 51°9.24 2°35.962 259.8 1.4 278.6 16.8
2002-11-29 10:15:30 51°9.252 2°35.911 299.2 2.5 303.5 16.5
2002-11-29 10:16:30 51°9.294 2°35.876 351 3.2 350.1 16.7
2002-11-29 10:17:30 51°9.344 2°35.896 39.2 3 31.6 16.9
2002-11-29 10:18:30 51°9.375 2°35.945 71 2.4 54.1 16.8
2002-11-29 10:19:30 51°9.391 2°35.994 89.5 2 68.4 17
2002-11-29 10:20:31 51°9.401 2°36.039 102.5 1.7 73.9 17.3
2002-11-29 10:21:31 51°9.407 2°36.079 110.3 1.5 77.1 16.9
2002-11-29 10:22:30 51°9.412 2°36.116 115.5 1.4 78.6 17
2002-11-29 10:23:30 51°9.416 2°36.151 118.2 1.3 80.1 17
2002-11-29 10:24:30 51°9.42 2°36.184 123.2 1.3 79.1 16.1
2002-11-29 10:25:31 51°9.421 2°36.217 128.7 1.2 85.2 17
2002-11-29 10:26:30 51°9.422 2°36.247 132.3 1.1 88.4 16.9
2002-11-29 10:27:30 51°9.422 2°36.275 133.3 1 88.9 16.4
2002-11-29 10:28:30 51°9.422 2°36.303 132.8 1.1 93.5 16.9
2002-11-29 10:29:31 51°9.423 2°36.33 132 1.1 90.7 16.6
2002-11-29 10:30:31 51°9.424 2°36.357 130 1 83.3 16.5
2002-11-29 10:31:30 51°9.426 2°36.383 128.2 1 80.3 16.4
2002-11-29 10:32:31 51°9.429 2°36.412 125.2 1.1 77.1 16.3
2002-11-29 10:33:31 51°9.431 2°36.441 125 1.1 81.4 16.4
2002-11-29 10:34:31 51°9.433 2°36.469 126.7 1 84.9 15.9
2002-11-29 10:35:30 51°9.435 2°36.496 127.5 1 87.2 16.1
2002-11-29 10:36:31 51°9.437 2°36.524 128.2 1 85.1 15.9
2002-11-29 10:37:31 51°9.438 2°36.55 129.3 1 87.3 15.8
2002-11-29 10:38:31 51°9.439 2°36.576 129.5 0.9 86.8 15.7
2002-11-29 10:39:31 51°9.44 2°36.601 126.8 1 85.5 16.3
2002-11-29 10:40:31 51°9.441 2°36.628 126.7 1 87.9 16.2
2002-11-29 10:41:30 51°9.436 2°36.66 142.5 1.7 119.9 16.3
2002-11-29 10:42:30 51°9.397 2°36.678 199.8 3.2 194.9 16.3
2002-11-29 10:43:30 51°9.366 2°36.637 233 1.5 239 16.3
2002-11-29 10:44:32 51°9.375 2°36.638 264.3 0.5 7.6 -999
2002-11-29 10:45:30 51°9.383 2°36.639 277.2 0.6 355.8 16.3
2002-11-29 10:46:31 51°9.393 2°36.637 286.3 0.6 348 16.4
2002-11-29 10:47:31 51°9.404 2°36.632 292.3 0.8 341.1 16.2
2002-11-29 10:48:29 51°9.416 2°36.626 293.7 0.8 337.3 16.2
2002-11-29 10:49:30 51°9.428 2°36.616 290.7 0.7 334.9 15.9
2002-11-29 10:50:31 51°9.45 2°36.573 307.5 5.6 304.2 15.6
2002-11-29 10:51:30 51°9.584 2°36.58 49 10.6 38.8 16.2
2002-11-29 10:52:31 51°9.561 2°36.85 133.8 11.4 127.2 16.1
2002-11-29 10:53:30 51°9.438 2°37.088 129.3 11.9 125.3 14.9
2002-11-29 10:54:31 51°9.369 2°37.341 103.5 7.8 100.4 12.7
2002-11-29 10:55:31 51°9.385 2°37.464 66.2 3 60.1 12.4
2002-11-29 10:56:31 51°9.403 2°37.487 59.5 1.1 34.1 12.6
2002-11-29 10:57:30 51°9.418 2°37.503 70.7 1.1 37.8 12.5
2002-11-29 10:58:31 51°9.429 2°37.522 83.8 0.9 47.6 12.3
2002-11-29 10:59:31 51°9.438 2°37.539 92.2 0.8 51.9 12.6
2002-11-29 11:00:31 51°9.446 2°37.553 98.3 0.6 52 12.5
2002-11-29 11:01:31 51°9.451 2°37.566 104 0.5 57.5 12.4
2002-11-29 11:02:31 51°9.456 2°37.578 108.5 0.5 52.4 12.7
2002-11-29 11:03:31 51°9.461 2°37.588 110.8 0.4 52.9 12.3
2002-11-29 11:04:28 51°9.465 2°37.596 110.8 0.4 49.8 12.6
2002-11-29 11:05:31 51°9.47 2°37.605 111.3 0.4 48 12.8
2002-11-29 11:06:31 51°9.474 2°37.612 112.5 0.3 49.6 12.3
2002-11-29 11:07:31 51°9.479 2°37.619 115 0.3 52.7 12.8
2002-11-29 11:08:30 51°9.483 2°37.626 116.8 0.4 48.4 12.8
2002-11-29 11:09:30 51°9.486 2°37.633 118.5 0.3 56 12.7
2002-11-29 11:10:31 51°9.491 2°37.64 119.5 0.3 46.5 12.5
2002-11-29 11:11:31 51°9.495 2°37.647 121 0.3 48 12.5
2002-11-29 11:12:30 51°9.499 2°37.653 121.8 0.3 44 12.7
2002-11-29 11:13:31 51°9.503 2°37.659 121.7 0.3 46.1 12.9
2002-11-29 11:14:30 51°9.507 2°37.666 121.7 0.3 48.7 12.3
2002-11-29 11:15:30 51°9.509 2°37.673 124.2 0.3 56.4 12.5
2002-11-29 11:16:31 51°9.512 2°37.679 126.2 0.2 54.5 12.5
2002-11-29 11:17:31 51°9.513 2°37.686 127.5 1 111.9 12.7
2002-11-29 11:18:31 51°9.485 2°37.837 97 8.1 94.7 12
2002-11-29 11:19:31 51°9.529 2°38.067 69.2 10 64.1 11.3
2002-11-29 11:20:31 51°9.612 2°38.325 59.2 11.2 55.6 11.6
2002-11-29 11:21:31 51°9.732 2°38.559 61 11.4 55.4 11.9
2002-11-29 11:22:31 51°9.838 2°38.811 62.5 11.5 56.9 12.3
2002-11-29 11:23:31 51°9.936 2°39.073 64 11.4 58.9 12.5
2002-11-29 11:24:30 51°10.032 2°39.329 64.5 11.4 59.6 12.3
2002-11-29 11:25:31 51°10.119 2°39.602 70.2 11.4 65.3 12.7
2002-11-29 11:26:31 51°10.198 2°39.876 69.5 11.4 65.2 12.6
2002-11-29 11:27:30 51°10.278 2°40.144 69.7 11.3 65.1 12.4
2002-11-29 11:28:31 51°10.357 2°40.421 70 11.4 65.5 12
2002-11-29 11:29:30 51°10.438 2°40.688 69.3 11.4 64.8 12.1
2002-11-29 11:30:31 51°10.52 2°40.967 69.8 11.4 65.1 12.3
2002-11-29 11:31:31 51°10.6 2°41.242 69.8 11.4 65.4 12.2
2002-11-29 11:32:31 51°10.678 2°41.523 70.8 11.4 66.4 12.3
2002-11-29 11:33:31 51°10.756 2°41.801 70.3 11.4 65.2 12.1
2002-11-29 11:34:31 51°10.834 2°42.079 70.2 11.5 65.7 -999
2002-11-29 11:35:30 51°10.91 2°42.35 69.8 11.5 65.7 12.4
2002-11-29 11:36:31 51°10.988 2°42.633 70.5 11.4 65.6 12.5
2002-11-29 11:37:31 51°11.065 2°42.908 69.8 11.4 65.8 12.4
2002-11-29 11:38:31 51°11.138 2°43.185 73 11.3 68.4 12.5
2002-11-29 11:39:31 51°11.209 2°43.467 72.7 11.5 68.2 12.2
2002-11-29 11:40:31 51°11.279 2°43.748 73.2 11.3 68.6 12
2002-11-29 11:41:31 51°11.35 2°44.025 72 11.3 67.6 12.5
2002-11-29 11:42:31 51°11.419 2°44.305 73.5 11.3 69.1 12.5
2002-11-29 11:43:31 51°11.487 2°44.585 73.8 11.3 69.3 12.5
2002-11-29 11:44:30 51°11.554 2°44.861 73.7 11.2 68.8 12.6
2002-11-29 11:45:30 51°11.621 2°45.142 73.7 11.3 68.8 12.4
2002-11-29 11:46:31 51°11.691 2°45.428 73.7 11.2 68.6 12.5
2002-11-29 11:47:31 51°11.76 2°45.71 73.8 11.3 68.4 12.7
2002-11-29 11:48:31 51°11.827 2°45.989 73.2 11.3 68.5 12.7
2002-11-29 11:49:31 51°11.895 2°46.268 72.8 11.3 68.3 12.7
2002-11-29 11:50:31 51°11.964 2°46.548 74.3 11.3 69.5 12
2002-11-29 11:51:31 51°12.039 2°46.825 71.3 11.3 66.8 12.4
2002-11-29 11:52:29 51°12.114 2°47.09 69.8 11.3 64.9 12.1
2002-11-29 11:53:31 51°12.197 2°47.37 69.8 11.3 64.7 12.3
2002-11-29 11:54:31 51°12.279 2°47.639 68.7 11.3 63.8 12.3
2002-11-29 11:55:31 51°12.36 2°47.91 70.2 11.3 65.1 12.2
2002-11-29 11:56:31 51°12.441 2°48.18 69.3 11.3 64.3 11.9
2002-11-29 11:57:31 51°12.524 2°48.45 69 11.3 63.6 12.1
2002-11-29 11:58:31 51°12.606 2°48.721 69.8 11.3 64 11.8
2002-11-29 11:59:31 51°12.688 2°48.991 70 11.2 64.7 11.4
2002-11-29 12:00:31 51°12.771 2°49.261 69 11.3 63.4 11.2
2002-11-29 12:01:31 51°12.853 2°49.529 69 11.3 63.6 11.5
2002-11-29 12:02:31 51°12.935 2°49.799 69.5 11.3 64.7 11.1
2002-11-29 12:03:30 51°13.012 2°50.006 43.7 6.4 39.8 11.4
2002-11-29 12:04:30 51°13.085 2°50.005 336.8 3.8 328.4 11.5
2002-11-29 12:05:30 51°13.12 2°49.967 341.2 1.6 325.5 11.5
2002-11-29 12:06:31 51°13.136 2°49.949 333.8 0.7 319.4 11.2
2002-11-29 12:07:31 51°13.139 2°49.941 327.5 0.3 308.4 11.3
2002-11-29 12:08:31 51°13.143 2°49.934 323 0.4 314.6 10.7
2002-11-29 12:09:31 51°13.146 2°49.932 320.2 0.1 351.7 10.9
2002-11-29 12:10:31 51°13.149 2°49.927 322.2 0.4 307.2 11.1
2002-11-29 12:11:30 51°13.156 2°49.917 316.7 0.6 318.6 10.7
2002-11-29 12:12:31 51°13.161 2°49.908 310 0.4 299.3 10.7
2002-11-29 12:13:31 51°13.164 2°49.903 305.2 0.1 57.3 10.4
2002-11-29 12:14:30 51°13.167 2°49.901 306.7 0.3 317.5 10.6
2002-11-29 12:15:31 51°13.174 2°49.884 296.7 1.6 292.9 10.7
2002-11-29 12:16:30 51°13.161 2°49.812 226.5 3.7 228.9 10.3
2002-11-29 12:17:31 51°13.098 2°49.813 137.2 4.4 140.2 11.2
2002-11-29 12:18:31 51°13.101 2°49.961 82.5 7.6 77.6 11
2002-11-29 12:19:31 51°13.176 2°50.164 59.5 9.8 52.7 11
2002-11-29 12:20:31 51°13.255 2°50.407 70.5 10.5 65.8 11
2002-11-29 12:21:31 51°13.33 2°50.662 70.8 10.6 65.9 10.9
2002-11-29 12:22:31 51°13.408 2°50.914 66.2 10.6 59.9 10.6
2002-11-29 12:23:31 51°13.498 2°51.159 66.2 10.7 60.1 10.4
2002-11-29 12:24:30 51°13.584 2°51.402 66.5 10.7 61.3 10.5
2002-11-29 12:25:31 51°13.675 2°51.652 64.7 10.7 59.3 10.5
2002-11-29 12:26:30 51°13.764 2°51.893 65 10.7 59.7 10.4
2002-11-29 12:27:31 51°13.856 2°52.143 65.5 10.7 60 10.1
2002-11-29 12:28:31 51°13.944 2°52.388 66.3 10.7 60.8 10.1
2002-11-29 12:29:31 51°14.026 2°52.639 68.7 10.6 62.8 10.4
2002-11-29 12:30:28 51°14.11 2°52.869 65.2 10.4 61 10.2
2002-11-29 12:31:31 51°14.211 2°53.114 65 10.6 59.1 9.5
2002-11-29 12:32:31 51°14.292 2°53.364 69.7 11 65.6 9.3
2002-11-29 12:33:31 51°14.374 2°53.643 71.5 11.7 66.5 9.3
2002-11-29 12:34:31 51°14.429 2°53.94 83.8 11.5 79.2 9.1
2002-11-29 12:35:31 51°14.458 2°54.23 84.2 10.8 81.5 9.1
2002-11-29 12:36:31 51°14.469 2°54.519 94.3 10.9 91.5 10
2002-11-29 12:37:31 51°14.445 2°54.805 107.7 10.9 105.4 9.6
2002-11-29 12:38:31 51°14.367 2°55.067 123.7 11 121.5 9.8
2002-11-29 12:39:31 51°14.269 2°55.248 141.7 7.4 138.9 9.2
2002-11-29 12:40:31 51°14.19 2°55.348 145.3 5.5 142.3 9.9
2002-11-29 12:41:31 51°14.118 2°55.419 157.3 4.9 153.4 8.9
2002-11-29 12:42:30 51°14.043 2°55.476 157.7 5.2 155.4 9.3
2002-11-29 12:43:31 51°13.962 2°55.538 156 5.3 153.1 -999
2002-11-29 12:44:31 51°13.883 2°55.597 158 5.2 156.1 10
2002-11-29 12:45:31 51°13.805 2°55.657 153 5 150.2 9.7
2002-11-29 12:46:31 51°13.742 2°55.739 139.2 4.7 137.1 9.1
2002-11-29 12:47:31 51°13.698 2°55.823 129 3.9 126.1 8.6
2002-11-29 12:48:31 51°13.662 2°55.899 129.3 3.3 127.8 8.6
2002-11-29 12:49:31 51°13.633 2°55.964 127.7 2.9 125.2 9.4
2002-11-29 12:50:31 51°13.61 2°56.024 119 2.4 117.4 8.7
2002-11-29 12:51:31 51°13.599 2°56.079 107.5 2 104.8 8
2002-11-29 12:52:31 51°13.595 2°56.116 110.8 1 103.6 6.1
2002-11-29 12:53:31 51°13.591 2°56.127 118.7 0.3 138.3 6.1
2002-11-29 12:54:31 51°13.59 2°56.132 119.2 0.2 63.9 6.8